sensor_id;sensor_type;location;lat;lon;timestamp;P1;durP1;ratioP1;P2;durP2;ratioP2
23101;SDS011;11720;51.214;22.574;2023-06-14T00:00:13;5.82;;;3.47;;
23101;SDS011;11720;51.214;22.574;2023-06-14T00:02:39;8.52;;;3.45;;
23101;SDS011;11720;51.214;22.574;2023-06-14T00:05:06;6.43;;;3.67;;
23101;SDS011;11720;51.214;22.574;2023-06-14T00:07:36;10.82;;;3.97;;
23101;SDS011;11720;51.214;22.574;2023-06-14T00:10:07;11.35;;;3.25;;
23101;SDS011;11720;51.214;22.574;2023-06-14T00:12:34;5.13;;;2.63;;
23101;SDS011;11720;51.214;22.574;2023-06-14T00:15:00;8.57;;;3.85;;
23101;SDS011;11720;51.214;22.574;2023-06-14T00:17:26;6.72;;;3.90;;
23101;SDS011;11720;51.214;22.574;2023-06-14T00:19:55;7.22;;;3.60;;
23101;SDS011;11720;51.214;22.574;2023-06-14T00:22:22;6.75;;;3.60;;
23101;SDS011;11720;51.214;22.574;2023-06-14T00:24:49;6.00;;;3.13;;
23101;SDS011;11720;51.214;22.574;2023-06-14T00:27:18;4.75;;;3.00;;
23101;SDS011;11720;51.214;22.574;2023-06-14T00:29:43;7.45;;;3.55;;
23101;SDS011;11720;51.214;22.574;2023-06-14T00:32:09;5.75;;;3.75;;
23101;SDS011;11720;51.214;22.574;2023-06-14T00:34:35;4.90;;;3.63;;
23101;SDS011;11720;51.214;22.574;2023-06-14T00:37:00;6.85;;;3.30;;
23101;SDS011;11720;51.214;22.574;2023-06-14T00:39:26;7.82;;;4.35;;
23101;SDS011;11720;51.214;22.574;2023-06-14T00:41:52;7.25;;;3.33;;
23101;SDS011;11720;51.214;22.574;2023-06-14T00:44:18;5.25;;;3.13;;
23101;SDS011;11720;51.214;22.574;2023-06-14T00:46:46;5.55;;;2.97;;
23101;SDS011;11720;51.214;22.574;2023-06-14T00:49:12;3.92;;;2.83;;
23101;SDS011;11720;51.214;22.574;2023-06-14T00:51:41;7.60;;;3.58;;
23101;SDS011;11720;51.214;22.574;2023-06-14T00:54:06;9.75;;;3.45;;
23101;SDS011;11720;51.214;22.574;2023-06-14T00:56:32;5.40;;;3.33;;
23101;SDS011;11720;51.214;22.574;2023-06-14T00:58:58;3.58;;;2.85;;
23101;SDS011;11720;51.214;22.574;2023-06-14T01:01:24;5.15;;;2.95;;
23101;SDS011;11720;51.214;22.574;2023-06-14T01:03:50;6.32;;;3.30;;
23101;SDS011;11720;51.214;22.574;2023-06-14T01:06:23;5.63;;;3.28;;
23101;SDS011;11720;51.214;22.574;2023-06-14T01:09:03;7.18;;;2.95;;
23101;SDS011;11720;51.214;22.574;2023-06-14T01:11:50;5.35;;;3.22;;
23101;SDS011;11720;51.214;22.574;2023-06-14T01:14:25;4.47;;;3.28;;
23101;SDS011;11720;51.214;22.574;2023-06-14T01:16:54;13.05;;;3.15;;
23101;SDS011;11720;51.214;22.574;2023-06-14T01:19:20;5.97;;;3.20;;
23101;SDS011;11720;51.214;22.574;2023-06-14T01:21:50;4.63;;;3.03;;
23101;SDS011;11720;51.214;22.574;2023-06-14T01:24:16;8.68;;;3.80;;
23101;SDS011;11720;51.214;22.574;2023-06-14T01:26:44;9.52;;;3.40;;
23101;SDS011;11720;51.214;22.574;2023-06-14T01:29:12;6.72;;;3.63;;
23101;SDS011;11720;51.214;22.574;2023-06-14T01:31:41;4.20;;;3.00;;
23101;SDS011;11720;51.214;22.574;2023-06-14T01:34:07;6.13;;;3.00;;
23101;SDS011;11720;51.214;22.574;2023-06-14T01:36:33;4.88;;;3.10;;
23101;SDS011;11720;51.214;22.574;2023-06-14T01:39:02;4.28;;;3.00;;
23101;SDS011;11720;51.214;22.574;2023-06-14T01:41:29;5.68;;;3.47;;
23101;SDS011;11720;51.214;22.574;2023-06-14T01:43:55;4.72;;;3.15;;
23101;SDS011;11720;51.214;22.574;2023-06-14T01:46:22;5.95;;;3.47;;
23101;SDS011;11720;51.214;22.574;2023-06-14T01:48:48;12.50;;;3.95;;
23101;SDS011;11720;51.214;22.574;2023-06-14T01:51:15;3.97;;;3.20;;
23101;SDS011;11720;51.214;22.574;2023-06-14T01:53:40;5.20;;;3.38;;
23101;SDS011;11720;51.214;22.574;2023-06-14T01:56:06;5.35;;;3.70;;
23101;SDS011;11720;51.214;22.574;2023-06-14T01:58:32;5.82;;;3.45;;
23101;SDS011;11720;51.214;22.574;2023-06-14T02:00:58;6.07;;;3.30;;
23101;SDS011;11720;51.214;22.574;2023-06-14T02:03:25;14.52;;;3.60;;
23101;SDS011;11720;51.214;22.574;2023-06-14T02:05:51;6.75;;;3.55;;
23101;SDS011;11720;51.214;22.574;2023-06-14T02:08:17;12.48;;;3.58;;
23101;SDS011;11720;51.214;22.574;2023-06-14T02:10:43;4.47;;;3.70;;
23101;SDS011;11720;51.214;22.574;2023-06-14T02:13:08;4.90;;;3.08;;
23101;SDS011;11720;51.214;22.574;2023-06-14T02:15:34;4.18;;;3.10;;
23101;SDS011;11720;51.214;22.574;2023-06-14T02:18:01;5.38;;;3.10;;
23101;SDS011;11720;51.214;22.574;2023-06-14T02:20:27;4.40;;;3.13;;
23101;SDS011;11720;51.214;22.574;2023-06-14T02:22:53;5.65;;;3.65;;
23101;SDS011;11720;51.214;22.574;2023-06-14T02:25:19;6.50;;;4.22;;
23101;SDS011;11720;51.214;22.574;2023-06-14T02:27:44;6.53;;;3.38;;
23101;SDS011;11720;51.214;22.574;2023-06-14T02:30:10;5.63;;;3.80;;
23101;SDS011;11720;51.214;22.574;2023-06-14T02:32:37;4.43;;;3.58;;
23101;SDS011;11720;51.214;22.574;2023-06-14T02:35:03;5.85;;;3.88;;
23101;SDS011;11720;51.214;22.574;2023-06-14T02:37:29;10.55;;;4.40;;
23101;SDS011;11720;51.214;22.574;2023-06-14T02:39:55;7.13;;;4.05;;
23101;SDS011;11720;51.214;22.574;2023-06-14T02:42:21;8.02;;;4.70;;
23101;SDS011;11720;51.214;22.574;2023-06-14T02:44:46;6.20;;;3.55;;
23101;SDS011;11720;51.214;22.574;2023-06-14T02:47:16;7.20;;;4.25;;
23101;SDS011;11720;51.214;22.574;2023-06-14T02:49:44;9.35;;;4.70;;
23101;SDS011;11720;51.214;22.574;2023-06-14T02:52:13;8.43;;;3.97;;
23101;SDS011;11720;51.214;22.574;2023-06-14T02:54:39;5.65;;;4.00;;
23101;SDS011;11720;51.214;22.574;2023-06-14T02:57:05;10.88;;;4.30;;
23101;SDS011;11720;51.214;22.574;2023-06-14T02:59:32;7.93;;;4.38;;
23101;SDS011;11720;51.214;22.574;2023-06-14T03:01:58;11.77;;;5.63;;
23101;SDS011;11720;51.214;22.574;2023-06-14T03:04:24;7.03;;;4.35;;
23101;SDS011;11720;51.214;22.574;2023-06-14T03:06:53;7.43;;;4.30;;
23101;SDS011;11720;51.214;22.574;2023-06-14T03:09:19;10.18;;;4.28;;
23101;SDS011;11720;51.214;22.574;2023-06-14T03:11:46;5.68;;;4.50;;
23101;SDS011;11720;51.214;22.574;2023-06-14T03:14:11;6.22;;;4.20;;
23101;SDS011;11720;51.214;22.574;2023-06-14T03:16:38;7.68;;;4.63;;
23101;SDS011;11720;51.214;22.574;2023-06-14T03:19:05;6.72;;;4.13;;
23101;SDS011;11720;51.214;22.574;2023-06-14T03:21:30;7.50;;;4.57;;
23101;SDS011;11720;51.214;22.574;2023-06-14T03:23:57;6.05;;;4.28;;
23101;SDS011;11720;51.214;22.574;2023-06-14T03:26:22;8.52;;;4.90;;
23101;SDS011;11720;51.214;22.574;2023-06-14T03:28:48;7.07;;;4.55;;
23101;SDS011;11720;51.214;22.574;2023-06-14T03:31:16;8.52;;;4.45;;
23101;SDS011;11720;51.214;22.574;2023-06-14T03:33:42;7.78;;;4.32;;
23101;SDS011;11720;51.214;22.574;2023-06-14T03:36:07;6.90;;;4.85;;
23101;SDS011;11720;51.214;22.574;2023-06-14T03:38:33;7.47;;;5.00;;
23101;SDS011;11720;51.214;22.574;2023-06-14T03:40:59;8.88;;;5.10;;
23101;SDS011;11720;51.214;22.574;2023-06-14T03:43:25;9.30;;;5.38;;
23101;SDS011;11720;51.214;22.574;2023-06-14T03:45:51;8.13;;;4.65;;
23101;SDS011;11720;51.214;22.574;2023-06-14T03:48:16;8.60;;;4.57;;
23101;SDS011;11720;51.214;22.574;2023-06-14T03:50:42;8.68;;;4.60;;
23101;SDS011;11720;51.214;22.574;2023-06-14T03:53:09;9.25;;;4.43;;
23101;SDS011;11720;51.214;22.574;2023-06-14T03:55:35;8.23;;;4.20;;
23101;SDS011;11720;51.214;22.574;2023-06-14T03:58:00;12.63;;;5.03;;
23101;SDS011;11720;51.214;22.574;2023-06-14T04:00:26;9.30;;;4.78;;
23101;SDS011;11720;51.214;22.574;2023-06-14T04:02:52;7.22;;;4.20;;
23101;SDS011;11720;51.214;22.574;2023-06-14T04:05:18;12.38;;;4.78;;
23101;SDS011;11720;51.214;22.574;2023-06-14T04:07:45;9.38;;;4.60;;
23101;SDS011;11720;51.214;22.574;2023-06-14T04:10:14;6.72;;;4.38;;
23101;SDS011;11720;51.214;22.574;2023-06-14T04:12:42;8.65;;;4.22;;
23101;SDS011;11720;51.214;22.574;2023-06-14T04:15:08;11.65;;;4.63;;
23101;SDS011;11720;51.214;22.574;2023-06-14T04:17:34;8.65;;;4.80;;
23101;SDS011;11720;51.214;22.574;2023-06-14T04:20:03;9.20;;;4.72;;
23101;SDS011;11720;51.214;22.574;2023-06-14T04:22:30;8.18;;;4.65;;
23101;SDS011;11720;51.214;22.574;2023-06-14T04:24:56;5.22;;;3.72;;
23101;SDS011;11720;51.214;22.574;2023-06-14T04:27:26;6.82;;;4.05;;
23101;SDS011;11720;51.214;22.574;2023-06-14T04:29:56;5.97;;;3.95;;
23101;SDS011;11720;51.214;22.574;2023-06-14T04:32:26;7.45;;;4.10;;
23101;SDS011;11720;51.214;22.574;2023-06-14T04:34:57;5.32;;;3.47;;
23101;SDS011;11720;51.214;22.574;2023-06-14T04:37:24;9.38;;;4.22;;
23101;SDS011;11720;51.214;22.574;2023-06-14T04:39:53;11.15;;;4.15;;
23101;SDS011;11720;51.214;22.574;2023-06-14T04:42:21;5.82;;;4.05;;
23101;SDS011;11720;51.214;22.574;2023-06-14T04:44:50;5.72;;;3.70;;
23101;SDS011;11720;51.214;22.574;2023-06-14T04:47:16;9.35;;;4.15;;
23101;SDS011;11720;51.214;22.574;2023-06-14T04:49:42;5.25;;;3.67;;
23101;SDS011;11720;51.214;22.574;2023-06-14T04:52:08;5.15;;;3.67;;
23101;SDS011;11720;51.214;22.574;2023-06-14T04:54:35;9.10;;;3.88;;
23101;SDS011;11720;51.214;22.574;2023-06-14T04:57:04;5.93;;;4.63;;
23101;SDS011;11720;51.214;22.574;2023-06-14T04:59:30;6.70;;;3.67;;
23101;SDS011;11720;51.214;22.574;2023-06-14T05:01:58;4.50;;;3.67;;
23101;SDS011;11720;51.214;22.574;2023-06-14T05:04:25;6.22;;;3.70;;
23101;SDS011;11720;51.214;22.574;2023-06-14T05:06:51;6.90;;;4.03;;
23101;SDS011;11720;51.214;22.574;2023-06-14T05:09:19;6.93;;;3.72;;
23101;SDS011;11720;51.214;22.574;2023-06-14T05:11:46;10.77;;;4.20;;
23101;SDS011;11720;51.214;22.574;2023-06-14T05:14:12;7.38;;;3.80;;
23101;SDS011;11720;51.214;22.574;2023-06-14T05:16:38;5.43;;;3.25;;
23101;SDS011;11720;51.214;22.574;2023-06-14T05:19:05;4.60;;;3.50;;
23101;SDS011;11720;51.214;22.574;2023-06-14T05:21:31;9.43;;;3.45;;
23101;SDS011;11720;51.214;22.574;2023-06-14T05:23:59;4.15;;;3.25;;
23101;SDS011;11720;51.214;22.574;2023-06-14T05:26:25;6.13;;;4.10;;
23101;SDS011;11720;51.214;22.574;2023-06-14T05:28:56;8.00;;;3.50;;
23101;SDS011;11720;51.214;22.574;2023-06-14T05:31:23;4.72;;;3.33;;
23101;SDS011;11720;51.214;22.574;2023-06-14T05:33:50;5.65;;;3.40;;
23101;SDS011;11720;51.214;22.574;2023-06-14T05:36:16;5.93;;;3.40;;
23101;SDS011;11720;51.214;22.574;2023-06-14T05:38:43;5.22;;;3.08;;
23101;SDS011;11720;51.214;22.574;2023-06-14T05:41:08;5.38;;;3.38;;
23101;SDS011;11720;51.214;22.574;2023-06-14T05:43:34;3.08;;;2.75;;
23101;SDS011;11720;51.214;22.574;2023-06-14T05:46:00;7.13;;;3.95;;
23101;SDS011;11720;51.214;22.574;2023-06-14T05:48:25;4.78;;;3.20;;
23101;SDS011;11720;51.214;22.574;2023-06-14T05:50:51;5.32;;;3.45;;
23101;SDS011;11720;51.214;22.574;2023-06-14T05:53:16;7.10;;;3.58;;
23101;SDS011;11720;51.214;22.574;2023-06-14T05:55:42;5.55;;;3.47;;
23101;SDS011;11720;51.214;22.574;2023-06-14T05:58:08;6.13;;;2.92;;
23101;SDS011;11720;51.214;22.574;2023-06-14T06:00:34;5.38;;;3.35;;
23101;SDS011;11720;51.214;22.574;2023-06-14T06:03:00;8.55;;;3.65;;
23101;SDS011;11720;51.214;22.574;2023-06-14T06:05:25;5.68;;;3.63;;
23101;SDS011;11720;51.214;22.574;2023-06-14T06:07:51;5.75;;;3.20;;
23101;SDS011;11720;51.214;22.574;2023-06-14T06:10:17;5.80;;;3.25;;
23101;SDS011;11720;51.214;22.574;2023-06-14T06:12:43;9.73;;;3.75;;
23101;SDS011;11720;51.214;22.574;2023-06-14T06:15:10;8.00;;;3.60;;
23101;SDS011;11720;51.214;22.574;2023-06-14T06:17:39;5.15;;;2.97;;
23101;SDS011;11720;51.214;22.574;2023-06-14T06:20:05;6.30;;;3.42;;
23101;SDS011;11720;51.214;22.574;2023-06-14T06:22:33;5.30;;;3.15;;
23101;SDS011;11720;51.214;22.574;2023-06-14T06:24:59;6.35;;;3.40;;
23101;SDS011;11720;51.214;22.574;2023-06-14T06:27:25;6.65;;;3.83;;
23101;SDS011;11720;51.214;22.574;2023-06-14T06:29:50;7.18;;;3.35;;
23101;SDS011;11720;51.214;22.574;2023-06-14T06:32:16;6.28;;;3.83;;
23101;SDS011;11720;51.214;22.574;2023-06-14T06:34:42;4.57;;;3.63;;
23101;SDS011;11720;51.214;22.574;2023-06-14T06:37:08;6.63;;;3.65;;
23101;SDS011;11720;51.214;22.574;2023-06-14T06:39:34;5.18;;;3.30;;
23101;SDS011;11720;51.214;22.574;2023-06-14T06:42:00;6.50;;;3.22;;
23101;SDS011;11720;51.214;22.574;2023-06-14T06:44:25;6.28;;;3.67;;
23101;SDS011;11720;51.214;22.574;2023-06-14T06:46:51;3.45;;;3.00;;
23101;SDS011;11720;51.214;22.574;2023-06-14T06:49:17;4.88;;;2.80;;
23101;SDS011;11720;51.214;22.574;2023-06-14T06:51:43;5.65;;;3.38;;
23101;SDS011;11720;51.214;22.574;2023-06-14T06:54:09;4.00;;;3.35;;
23101;SDS011;11720;51.214;22.574;2023-06-14T06:56:35;8.40;;;3.60;;
23101;SDS011;11720;51.214;22.574;2023-06-14T06:59:01;3.50;;;3.20;;
23101;SDS011;11720;51.214;22.574;2023-06-14T07:01:27;4.93;;;3.13;;
23101;SDS011;11720;51.214;22.574;2023-06-14T07:03:57;4.68;;;3.53;;
23101;SDS011;11720;51.214;22.574;2023-06-14T07:06:22;6.43;;;3.90;;
23101;SDS011;11720;51.214;22.574;2023-06-14T07:08:52;4.78;;;3.20;;
23101;SDS011;11720;51.214;22.574;2023-06-14T07:11:17;4.10;;;3.33;;
23101;SDS011;11720;51.214;22.574;2023-06-14T07:13:43;4.30;;;3.13;;
23101;SDS011;11720;51.214;22.574;2023-06-14T07:16:08;6.75;;;3.95;;
23101;SDS011;11720;51.214;22.574;2023-06-14T07:18:34;5.18;;;3.80;;
23101;SDS011;11720;51.214;22.574;2023-06-14T07:21:00;4.10;;;3.13;;
23101;SDS011;11720;51.214;22.574;2023-06-14T07:23:26;5.05;;;3.30;;
23101;SDS011;11720;51.214;22.574;2023-06-14T07:25:52;4.45;;;3.05;;
23101;SDS011;11720;51.214;22.574;2023-06-14T07:28:17;5.20;;;3.33;;
23101;SDS011;11720;51.214;22.574;2023-06-14T07:30:43;4.72;;;2.90;;
23101;SDS011;11720;51.214;22.574;2023-06-14T07:33:09;9.25;;;3.47;;
23101;SDS011;11720;51.214;22.574;2023-06-14T07:35:36;4.55;;;3.10;;
23101;SDS011;11720;51.214;22.574;2023-06-14T07:38:02;5.53;;;3.15;;
23101;SDS011;11720;51.214;22.574;2023-06-14T07:40:27;4.25;;;3.10;;
23101;SDS011;11720;51.214;22.574;2023-06-14T07:42:53;4.78;;;3.03;;
23101;SDS011;11720;51.214;22.574;2023-06-14T07:45:19;4.88;;;3.65;;
23101;SDS011;11720;51.214;22.574;2023-06-14T07:47:45;5.75;;;3.67;;
23101;SDS011;11720;51.214;22.574;2023-06-14T07:50:11;6.25;;;3.42;;
23101;SDS011;11720;51.214;22.574;2023-06-14T07:52:38;5.57;;;3.28;;
23101;SDS011;11720;51.214;22.574;2023-06-14T07:55:04;6.40;;;3.45;;
23101;SDS011;11720;51.214;22.574;2023-06-14T07:57:30;7.53;;;4.00;;
23101;SDS011;11720;51.214;22.574;2023-06-14T07:59:56;8.20;;;3.30;;
23101;SDS011;11720;51.214;22.574;2023-06-14T08:02:21;5.05;;;3.10;;
23101;SDS011;11720;51.214;22.574;2023-06-14T08:04:47;4.57;;;3.08;;
23101;SDS011;11720;51.214;22.574;2023-06-14T08:07:13;9.40;;;3.53;;
23101;SDS011;11720;51.214;22.574;2023-06-14T08:09:39;9.70;;;3.40;;
23101;SDS011;11720;51.214;22.574;2023-06-14T08:12:05;3.67;;;2.95;;
23101;SDS011;11720;51.214;22.574;2023-06-14T08:14:35;7.78;;;3.63;;
23101;SDS011;11720;51.214;22.574;2023-06-14T08:17:00;5.97;;;3.53;;
23101;SDS011;11720;51.214;22.574;2023-06-14T08:19:26;3.20;;;2.50;;
23101;SDS011;11720;51.214;22.574;2023-06-14T08:21:52;4.20;;;3.10;;
23101;SDS011;11720;51.214;22.574;2023-06-14T08:24:21;3.67;;;3.15;;
23101;SDS011;11720;51.214;22.574;2023-06-14T08:26:49;5.00;;;2.90;;
23101;SDS011;11720;51.214;22.574;2023-06-14T08:29:15;3.15;;;2.83;;
23101;SDS011;11720;51.214;22.574;2023-06-14T08:31:41;4.60;;;2.70;;
23101;SDS011;11720;51.214;22.574;2023-06-14T08:34:06;2.97;;;2.30;;
23101;SDS011;11720;51.214;22.574;2023-06-14T08:36:32;4.80;;;2.30;;
23101;SDS011;11720;51.214;22.574;2023-06-14T08:38:58;3.80;;;2.47;;
23101;SDS011;11720;51.214;22.574;2023-06-14T08:41:24;3.75;;;2.50;;
23101;SDS011;11720;51.214;22.574;2023-06-14T08:43:52;3.42;;;2.60;;
23101;SDS011;11720;51.214;22.574;2023-06-14T08:46:17;4.07;;;2.80;;
23101;SDS011;11720;51.214;22.574;2023-06-14T08:48:50;3.55;;;2.58;;
23101;SDS011;11720;51.214;22.574;2023-06-14T08:51:20;6.97;;;3.03;;
23101;SDS011;11720;51.214;22.574;2023-06-14T08:53:57;4.68;;;2.17;;
23101;SDS011;11720;51.214;22.574;2023-06-14T08:56:24;4.10;;;2.70;;
23101;SDS011;11720;51.214;22.574;2023-06-14T08:58:52;3.13;;;2.58;;
23101;SDS011;11720;51.214;22.574;2023-06-14T09:01:19;5.38;;;2.88;;
23101;SDS011;11720;51.214;22.574;2023-06-14T09:03:47;5.80;;;2.67;;
23101;SDS011;11720;51.214;22.574;2023-06-14T09:06:13;5.72;;;2.70;;
23101;SDS011;11720;51.214;22.574;2023-06-14T09:08:43;4.78;;;2.20;;
23101;SDS011;11720;51.214;22.574;2023-06-14T09:11:11;3.78;;;2.72;;
23101;SDS011;11720;51.214;22.574;2023-06-14T09:13:38;4.35;;;2.65;;
23101;SDS011;11720;51.214;22.574;2023-06-14T09:16:04;5.72;;;2.20;;
23101;SDS011;11720;51.214;22.574;2023-06-14T09:18:44;5.00;;;2.28;;
23101;SDS011;11720;51.214;22.574;2023-06-14T09:21:12;2.53;;;2.33;;
23101;SDS011;11720;51.214;22.574;2023-06-14T09:23:45;2.50;;;2.25;;
23101;SDS011;11720;51.214;22.574;2023-06-14T09:26:18;5.35;;;2.10;;
23101;SDS011;11720;51.214;22.574;2023-06-14T09:28:48;3.45;;;2.33;;
23101;SDS011;11720;51.214;22.574;2023-06-14T09:31:19;5.47;;;2.33;;
23101;SDS011;11720;51.214;22.574;2023-06-14T09:33:48;5.25;;;2.70;;
23101;SDS011;11720;51.214;22.574;2023-06-14T09:36:18;3.25;;;2.45;;
23101;SDS011;11720;51.214;22.574;2023-06-14T09:38:57;4.70;;;2.78;;
23101;SDS011;11720;51.214;22.574;2023-06-14T09:41:30;3.03;;;2.20;;
23101;SDS011;11720;51.214;22.574;2023-06-14T09:44:00;4.55;;;3.08;;
23101;SDS011;11720;51.214;22.574;2023-06-14T09:46:27;2.60;;;2.40;;
23101;SDS011;11720;51.214;22.574;2023-06-14T09:48:54;3.92;;;2.40;;
23101;SDS011;11720;51.214;22.574;2023-06-14T09:51:22;3.50;;;2.67;;
23101;SDS011;11720;51.214;22.574;2023-06-14T09:53:48;7.55;;;2.75;;
23101;SDS011;11720;51.214;22.574;2023-06-14T09:58:55;4.18;;;2.72;;
23101;SDS011;11720;51.214;22.574;2023-06-14T10:01:23;7.10;;;3.03;;
23101;SDS011;11720;51.214;22.574;2023-06-14T10:03:57;3.42;;;2.45;;
23101;SDS011;11720;51.214;22.574;2023-06-14T10:06:28;4.53;;;2.88;;
23101;SDS011;11720;51.214;22.574;2023-06-14T10:08:59;3.13;;;2.30;;
23101;SDS011;11720;51.214;22.574;2023-06-14T10:11:25;2.92;;;2.63;;
23101;SDS011;11720;51.214;22.574;2023-06-14T10:13:52;3.60;;;3.13;;
23101;SDS011;11720;51.214;22.574;2023-06-14T10:18:49;4.25;;;2.60;;
23101;SDS011;11720;51.214;22.574;2023-06-14T10:24:23;5.35;;;2.85;;
23101;SDS011;11720;51.214;22.574;2023-06-14T10:27:02;2.60;;;2.40;;
23101;SDS011;11720;51.214;22.574;2023-06-14T10:29:28;5.75;;;2.85;;
23101;SDS011;11720;51.214;22.574;2023-06-14T10:31:58;8.32;;;2.97;;
23101;SDS011;11720;51.214;22.574;2023-06-14T10:34:25;4.30;;;2.60;;
23101;SDS011;11720;51.214;22.574;2023-06-14T10:39:27;4.53;;;3.53;;
23101;SDS011;11720;51.214;22.574;2023-06-14T10:41:54;3.72;;;2.63;;
23101;SDS011;11720;51.214;22.574;2023-06-14T10:46:47;8.48;;;4.07;;
23101;SDS011;11720;51.214;22.574;2023-06-14T10:49:18;5.25;;;3.05;;
23101;SDS011;11720;51.214;22.574;2023-06-14T10:51:45;3.58;;;2.85;;
23101;SDS011;11720;51.214;22.574;2023-06-14T10:54:21;4.20;;;3.10;;
23101;SDS011;11720;51.214;22.574;2023-06-14T10:56:50;7.32;;;3.13;;
23101;SDS011;11720;51.214;22.574;2023-06-14T10:59:17;4.93;;;3.38;;
23101;SDS011;11720;51.214;22.574;2023-06-14T11:01:54;5.75;;;3.10;;
23101;SDS011;11720;51.214;22.574;2023-06-14T11:13:02;4.50;;;3.00;;
23101;SDS011;11720;51.214;22.574;2023-06-14T11:15:31;3.90;;;2.50;;
23101;SDS011;11720;51.214;22.574;2023-06-14T11:18:05;4.82;;;2.67;;
23101;SDS011;11720;51.214;22.574;2023-06-14T11:20:34;3.38;;;2.85;;
23101;SDS011;11720;51.214;22.574;2023-06-14T11:23:01;3.83;;;2.70;;
23101;SDS011;11720;51.214;22.574;2023-06-14T11:25:28;5.32;;;2.88;;
23101;SDS011;11720;51.214;22.574;2023-06-14T11:27:54;3.85;;;2.95;;
23101;SDS011;11720;51.214;22.574;2023-06-14T11:30:23;4.25;;;2.60;;
23101;SDS011;11720;51.214;22.574;2023-06-14T11:32:50;4.78;;;3.20;;
23101;SDS011;11720;51.214;22.574;2023-06-14T11:35:17;3.55;;;2.78;;
23101;SDS011;11720;51.214;22.574;2023-06-14T11:37:44;8.95;;;3.78;;
23101;SDS011;11720;51.214;22.574;2023-06-14T11:40:11;3.65;;;3.17;;
23101;SDS011;11720;51.214;22.574;2023-06-14T11:42:38;4.68;;;3.25;;
23101;SDS011;11720;51.214;22.574;2023-06-14T11:45:08;5.40;;;3.78;;
23101;SDS011;11720;51.214;22.574;2023-06-14T11:47:35;6.28;;;4.00;;
23101;SDS011;11720;51.214;22.574;2023-06-14T11:50:02;6.95;;;3.95;;
23101;SDS011;11720;51.214;22.574;2023-06-14T11:52:29;4.55;;;3.58;;
23101;SDS011;11720;51.214;22.574;2023-06-14T11:54:55;5.05;;;3.50;;
23101;SDS011;11720;51.214;22.574;2023-06-14T11:57:22;5.13;;;3.40;;
23101;SDS011;11720;51.214;22.574;2023-06-14T11:59:48;5.15;;;3.63;;
23101;SDS011;11720;51.214;22.574;2023-06-14T12:02:18;7.72;;;3.30;;
23101;SDS011;11720;51.214;22.574;2023-06-14T12:04:46;4.50;;;3.45;;
23101;SDS011;11720;51.214;22.574;2023-06-14T12:07:15;5.88;;;3.63;;
23101;SDS011;11720;51.214;22.574;2023-06-14T12:12:23;5.05;;;3.47;;
23101;SDS011;11720;51.214;22.574;2023-06-14T12:14:55;8.50;;;4.38;;
23101;SDS011;11720;51.214;22.574;2023-06-14T12:17:21;6.65;;;3.97;;
23101;SDS011;11720;51.214;22.574;2023-06-14T12:19:48;8.23;;;4.10;;
23101;SDS011;11720;51.214;22.574;2023-06-14T12:22:15;5.80;;;4.22;;
23101;SDS011;11720;51.214;22.574;2023-06-14T12:24:45;6.03;;;3.80;;
23101;SDS011;11720;51.214;22.574;2023-06-14T12:27:11;5.25;;;3.75;;
23101;SDS011;11720;51.214;22.574;2023-06-14T12:29:40;6.03;;;4.63;;
23101;SDS011;11720;51.214;22.574;2023-06-14T12:32:10;9.40;;;4.70;;
23101;SDS011;11720;51.214;22.574;2023-06-14T12:34:36;8.45;;;4.13;;
23101;SDS011;11720;51.214;22.574;2023-06-14T12:37:02;9.30;;;4.50;;
23101;SDS011;11720;51.214;22.574;2023-06-14T12:39:31;6.32;;;4.88;;
23101;SDS011;11720;51.214;22.574;2023-06-14T12:41:57;7.47;;;4.63;;
23101;SDS011;11720;51.214;22.574;2023-06-14T12:44:24;6.20;;;4.38;;
23101;SDS011;11720;51.214;22.574;2023-06-14T12:46:50;9.30;;;3.90;;
23101;SDS011;11720;51.214;22.574;2023-06-14T12:49:18;5.50;;;4.20;;
23101;SDS011;11720;51.214;22.574;2023-06-14T12:51:45;5.55;;;4.25;;
23101;SDS011;11720;51.214;22.574;2023-06-14T12:54:10;6.40;;;4.45;;
23101;SDS011;11720;51.214;22.574;2023-06-14T12:56:37;7.38;;;4.57;;
23101;SDS011;11720;51.214;22.574;2023-06-14T12:59:02;7.88;;;5.15;;
23101;SDS011;11720;51.214;22.574;2023-06-14T13:01:28;11.10;;;5.85;;
23101;SDS011;11720;51.214;22.574;2023-06-14T13:03:54;10.30;;;6.18;;
23101;SDS011;11720;51.214;22.574;2023-06-14T13:06:23;7.88;;;4.97;;
23101;SDS011;11720;51.214;22.574;2023-06-14T13:08:49;7.65;;;5.13;;
23101;SDS011;11720;51.214;22.574;2023-06-14T13:11:15;9.57;;;5.35;;
23101;SDS011;11720;51.214;22.574;2023-06-14T13:13:41;8.13;;;4.78;;
23101;SDS011;11720;51.214;22.574;2023-06-14T13:16:06;6.20;;;4.38;;
23101;SDS011;11720;51.214;22.574;2023-06-14T13:18:32;6.50;;;4.60;;
23101;SDS011;11720;51.214;22.574;2023-06-14T13:20:58;10.57;;;4.97;;
23101;SDS011;11720;51.214;22.574;2023-06-14T13:23:23;4.93;;;3.70;;
23101;SDS011;11720;51.214;22.574;2023-06-14T13:25:49;5.30;;;4.05;;
23101;SDS011;11720;51.214;22.574;2023-06-14T13:28:16;8.48;;;5.10;;
23101;SDS011;11720;51.214;22.574;2023-06-14T13:30:41;6.32;;;4.20;;
23101;SDS011;11720;51.214;22.574;2023-06-14T13:33:07;7.20;;;4.07;;
23101;SDS011;11720;51.214;22.574;2023-06-14T13:35:33;6.00;;;4.03;;
23101;SDS011;11720;51.214;22.574;2023-06-14T13:37:58;7.45;;;4.15;;
23101;SDS011;11720;51.214;22.574;2023-06-14T13:40:24;4.57;;;3.88;;
23101;SDS011;11720;51.214;22.574;2023-06-14T13:42:51;5.60;;;3.83;;
23101;SDS011;11720;51.214;22.574;2023-06-14T13:45:16;5.85;;;4.57;;
23101;SDS011;11720;51.214;22.574;2023-06-14T13:47:42;6.47;;;4.53;;
23101;SDS011;11720;51.214;22.574;2023-06-14T13:50:08;6.43;;;4.30;;
23101;SDS011;11720;51.214;22.574;2023-06-14T13:52:34;9.48;;;5.05;;
23101;SDS011;11720;51.214;22.574;2023-06-14T13:55:00;8.48;;;5.32;;
23101;SDS011;11720;51.214;22.574;2023-06-14T13:57:26;7.82;;;5.57;;
23101;SDS011;11720;51.214;22.574;2023-06-14T13:59:51;12.40;;;6.10;;
23101;SDS011;11720;51.214;22.574;2023-06-14T14:02:20;7.10;;;5.32;;
23101;SDS011;11720;51.214;22.574;2023-06-14T14:04:46;10.55;;;5.80;;
23101;SDS011;11720;51.214;22.574;2023-06-14T14:07:17;9.27;;;6.10;;
23101;SDS011;11720;51.214;22.574;2023-06-14T14:09:44;7.47;;;5.18;;
23101;SDS011;11720;51.214;22.574;2023-06-14T14:12:10;6.35;;;4.70;;
23101;SDS011;11720;51.214;22.574;2023-06-14T14:14:37;7.30;;;4.38;;
23101;SDS011;11720;51.214;22.574;2023-06-14T14:17:02;6.55;;;4.65;;
23101;SDS011;11720;51.214;22.574;2023-06-14T14:19:29;6.75;;;4.47;;
23101;SDS011;11720;51.214;22.574;2023-06-14T14:21:54;7.63;;;4.18;;
23101;SDS011;11720;51.214;22.574;2023-06-14T14:24:20;7.50;;;4.32;;
23101;SDS011;11720;51.214;22.574;2023-06-14T14:26:46;6.65;;;4.28;;
23101;SDS011;11720;51.214;22.574;2023-06-14T14:29:15;7.00;;;4.40;;
23101;SDS011;11720;51.214;22.574;2023-06-14T14:31:41;5.47;;;4.28;;
23101;SDS011;11720;51.214;22.574;2023-06-14T14:34:07;6.57;;;3.60;;
23101;SDS011;11720;51.214;22.574;2023-06-14T14:36:33;7.80;;;4.53;;
23101;SDS011;11720;51.214;22.574;2023-06-14T14:39:01;8.35;;;4.40;;
23101;SDS011;11720;51.214;22.574;2023-06-14T14:41:27;5.78;;;4.15;;
23101;SDS011;11720;51.214;22.574;2023-06-14T14:43:53;6.18;;;4.93;;
23101;SDS011;11720;51.214;22.574;2023-06-14T14:46:18;8.38;;;4.40;;
23101;SDS011;11720;51.214;22.574;2023-06-14T14:48:44;9.73;;;4.93;;
23101;SDS011;11720;51.214;22.574;2023-06-14T14:51:10;11.82;;;4.82;;
23101;SDS011;11720;51.214;22.574;2023-06-14T14:53:36;11.15;;;4.65;;
23101;SDS011;11720;51.214;22.574;2023-06-14T14:56:01;9.98;;;5.00;;